sensor_id;sensor_type;location;lat;lon;timestamp;pressure;altitude;pressure_sealevel;temperature;humidity
81509;BME280;70930;52.412;13.554;2023-07-22T00:00:56;100644.03;;;13.67;77.56
81509;BME280;70930;52.412;13.554;2023-07-22T00:03:42;100632.97;;;13.70;77.80
81509;BME280;70930;52.412;13.554;2023-07-22T00:06:27;100636.78;;;13.54;77.82
81509;BME280;70930;52.412;13.554;2023-07-22T00:09:13;100636.72;;;13.75;77.04
81509;BME280;70930;52.412;13.554;2023-07-22T00:11:58;100630.69;;;13.67;77.14
81509;BME280;70930;52.412;13.554;2023-07-22T00:14:43;100635.53;;;13.50;78.20
81509;BME280;70930;52.412;13.554;2023-07-22T00:17:29;100628.91;;;13.39;77.73
81509;BME280;70930;52.412;13.554;2023-07-22T00:20:14;100635.16;;;13.53;77.82
81509;BME280;70930;52.412;13.554;2023-07-22T00:23:01;100638.00;;;13.45;78.11
81509;BME280;70930;52.412;13.554;2023-07-22T00:25:46;100643.47;;;13.37;78.52
81509;BME280;70930;52.412;13.554;2023-07-22T00:28:32;100642.22;;;13.33;78.82
81509;BME280;70930;52.412;13.554;2023-07-22T00:31:17;100644.25;;;13.31;79.30
81509;BME280;70930;52.412;13.554;2023-07-22T00:34:03;100645.09;;;13.10;79.99
81509;BME280;70930;52.412;13.554;2023-07-22T00:36:48;100642.56;;;13.23;79.43
81509;BME280;70930;52.412;13.554;2023-07-22T00:39:33;100645.41;;;13.21;79.67
81509;BME280;70930;52.412;13.554;2023-07-22T00:42:19;100633.97;;;13.27;79.76
81509;BME280;70930;52.412;13.554;2023-07-22T00:45:06;100629.88;;;13.25;79.64
81509;BME280;70930;52.412;13.554;2023-07-22T00:47:52;100619.28;;;13.38;79.00
81509;BME280;70930;52.412;13.554;2023-07-22T00:50:38;100609.91;;;13.21;80.28
81509;BME280;70930;52.412;13.554;2023-07-22T00:53:24;100620.91;;;13.33;80.25
81509;BME280;70930;52.412;13.554;2023-07-22T00:56:09;100620.91;;;13.39;79.21
81509;BME280;70930;52.412;13.554;2023-07-22T00:58:55;100623.94;;;13.30;80.46
81509;BME280;70930;52.412;13.554;2023-07-22T01:01:40;100621.16;;;13.44;79.74
81509;BME280;70930;52.412;13.554;2023-07-22T01:04:26;100630.81;;;13.45;79.87
81509;BME280;70930;52.412;13.554;2023-07-22T01:07:12;100627.38;;;13.23;81.21
81509;BME280;70930;52.412;13.554;2023-07-22T01:09:58;100634.09;;;13.47;80.03
81509;BME280;70930;52.412;13.554;2023-07-22T01:12:44;100626.06;;;13.41;80.29
81509;BME280;70930;52.412;13.554;2023-07-22T01:15:30;100634.88;;;13.41;80.18
81509;BME280;70930;52.412;13.554;2023-07-22T01:18:16;100638.41;;;13.48;79.97
81509;BME280;70930;52.412;13.554;2023-07-22T01:21:01;100617.84;;;13.42;80.75
81509;BME280;70930;52.412;13.554;2023-07-22T01:23:47;100630.84;;;13.52;80.98
81509;BME280;70930;52.412;13.554;2023-07-22T01:26:33;100634.09;;;13.47;80.78
81509;BME280;70930;52.412;13.554;2023-07-22T01:29:18;100633.56;;;13.65;80.33
81509;BME280;70930;52.412;13.554;2023-07-22T01:32:04;100633.69;;;13.50;81.28
81509;BME280;70930;52.412;13.554;2023-07-22T01:34:50;100631.13;;;13.64;80.21
81509;BME280;70930;52.412;13.554;2023-07-22T01:37:36;100639.84;;;13.44;80.98
81509;BME280;70930;52.412;13.554;2023-07-22T01:40:21;100634.09;;;13.47;81.17
81509;BME280;70930;52.412;13.554;2023-07-22T01:43:11;100639.94;;;13.64;80.84
81509;BME280;70930;52.412;13.554;2023-07-22T01:45:57;100639.72;;;13.66;81.15
81509;BME280;70930;52.412;13.554;2023-07-22T01:48:42;100625.78;;;13.64;80.68
81509;BME280;70930;52.412;13.554;2023-07-22T01:51:27;100630.97;;;13.79;80.16
81509;BME280;70930;52.412;13.554;2023-07-22T01:54:13;100634.47;;;13.86;80.14
81509;BME280;70930;52.412;13.554;2023-07-22T01:56:58;100630.47;;;13.62;81.43
81509;BME280;70930;52.412;13.554;2023-07-22T01:59:44;100641.53;;;13.59;81.25
81509;BME280;70930;52.412;13.554;2023-07-22T02:02:29;100642.22;;;13.74;81.30
81509;BME280;70930;52.412;13.554;2023-07-22T02:05:15;100648.22;;;13.76;80.72
81509;BME280;70930;52.412;13.554;2023-07-22T02:08:01;100645.31;;;13.78;80.47
81509;BME280;70930;52.412;13.554;2023-07-22T02:10:46;100651.66;;;13.70;80.74
81509;BME280;70930;52.412;13.554;2023-07-22T02:13:33;100657.81;;;13.70;80.61
81509;BME280;70930;52.412;13.554;2023-07-22T02:16:19;100662.50;;;13.62;80.90
81509;BME280;70930;52.412;13.554;2023-07-22T02:19:04;100659.22;;;13.60;81.19
81509;BME280;70930;52.412;13.554;2023-07-22T02:21:50;100662.28;;;13.57;80.85
81509;BME280;70930;52.412;13.554;2023-07-22T02:24:35;100663.53;;;13.61;81.21
81509;BME280;70930;52.412;13.554;2023-07-22T02:27:21;100673.53;;;13.52;81.28
81509;BME280;70930;52.412;13.554;2023-07-22T02:30:07;100679.63;;;13.46;81.78
81509;BME280;70930;52.412;13.554;2023-07-22T02:32:55;100674.53;;;13.51;82.07
81509;BME280;70930;52.412;13.554;2023-07-22T02:35:41;100677.66;;;13.26;82.98
81509;BME280;70930;52.412;13.554;2023-07-22T02:38:27;100689.19;;;13.34;82.95
81509;BME280;70930;52.412;13.554;2023-07-22T02:41:13;100690.53;;;13.44;82.75
81509;BME280;70930;52.412;13.554;2023-07-22T02:43:59;100696.28;;;13.48;82.41
81509;BME280;70930;52.412;13.554;2023-07-22T02:46:44;100696.47;;;13.46;82.06
81509;BME280;70930;52.412;13.554;2023-07-22T02:49:29;100701.72;;;13.33;82.91
81509;BME280;70930;52.412;13.554;2023-07-22T02:52:15;100697.06;;;13.42;83.00
81509;BME280;70930;52.412;13.554;2023-07-22T02:57:49;100707.78;;;13.48;82.71
81509;BME280;70930;52.412;13.554;2023-07-22T03:00:35;100709.25;;;13.58;81.98
81509;BME280;70930;52.412;13.554;2023-07-22T03:03:20;100706.38;;;13.59;81.82
81509;BME280;70930;52.412;13.554;2023-07-22T03:06:06;100720.53;;;13.53;82.31
81509;BME280;70930;52.412;13.554;2023-07-22T03:08:52;100715.78;;;13.48;82.44
81509;BME280;70930;52.412;13.554;2023-07-22T03:11:38;100713.13;;;13.55;82.29
81509;BME280;70930;52.412;13.554;2023-07-22T03:14:24;100713.63;;;13.65;81.74
81509;BME280;70930;52.412;13.554;2023-07-22T03:17:09;100718.72;;;13.60;81.80
81509;BME280;70930;52.412;13.554;2023-07-22T03:19:54;100715.25;;;13.60;82.24
81509;BME280;70930;52.412;13.554;2023-07-22T03:22:40;100714.81;;;13.63;81.75
81509;BME280;70930;52.412;13.554;2023-07-22T03:25:26;100722.44;;;13.66;81.61
81509;BME280;70930;52.412;13.554;2023-07-22T03:28:12;100720.69;;;13.51;82.04
81509;BME280;70930;52.412;13.554;2023-07-22T03:30:57;100732.75;;;13.41;82.55
81509;BME280;70930;52.412;13.554;2023-07-22T03:33:42;100739.63;;;13.57;82.27
81509;BME280;70930;52.412;13.554;2023-07-22T03:36:31;100733.94;;;13.66;80.87
81509;BME280;70930;52.412;13.554;2023-07-22T03:39:19;100737.88;;;13.70;80.64
81509;BME280;70930;52.412;13.554;2023-07-22T03:42:05;100750.59;;;13.68;81.17
81509;BME280;70930;52.412;13.554;2023-07-22T03:44:51;100755.13;;;13.68;80.81
81509;BME280;70930;52.412;13.554;2023-07-22T03:47:37;100754.53;;;13.72;81.17
81509;BME280;70930;52.412;13.554;2023-07-22T03:50:23;100745.69;;;13.72;80.81
81509;BME280;70930;52.412;13.554;2023-07-22T03:53:08;100747.66;;;13.91;80.15
81509;BME280;70930;52.412;13.554;2023-07-22T03:55:54;100747.63;;;13.85;80.34
81509;BME280;70930;52.412;13.554;2023-07-22T03:58:39;100750.50;;;13.90;80.16
81509;BME280;70930;52.412;13.554;2023-07-22T04:01:25;100753.41;;;13.95;79.67
81509;BME280;70930;52.412;13.554;2023-07-22T04:04:10;100752.72;;;13.80;80.80
81509;BME280;70930;52.412;13.554;2023-07-22T04:06:55;100757.09;;;13.94;80.17
81509;BME280;70930;52.412;13.554;2023-07-22T04:09:41;100758.75;;;13.95;80.27
81509;BME280;70930;52.412;13.554;2023-07-22T04:12:26;100759.78;;;13.94;80.51
81509;BME280;70930;52.412;13.554;2023-07-22T04:15:12;100761.84;;;13.98;79.43
81509;BME280;70930;52.412;13.554;2023-07-22T04:17:57;100768.91;;;14.13;79.59
81509;BME280;70930;52.412;13.554;2023-07-22T04:20:43;100761.41;;;14.36;78.33
81509;BME280;70930;52.412;13.554;2023-07-22T04:23:29;100759.16;;;14.33;78.19
81509;BME280;70930;52.412;13.554;2023-07-22T04:26:14;100772.47;;;14.75;77.52
81509;BME280;70930;52.412;13.554;2023-07-22T04:29:00;100773.78;;;15.05;75.18
81509;BME280;70930;52.412;13.554;2023-07-22T04:31:45;100773.78;;;15.52;74.36
81509;BME280;70930;52.412;13.554;2023-07-22T04:34:31;100773.38;;;15.81;72.85
81509;BME280;70930;52.412;13.554;2023-07-22T04:37:17;100774.16;;;15.95;70.90
81509;BME280;70930;52.412;13.554;2023-07-22T04:40:02;100774.63;;;16.43;70.83
81509;BME280;70930;52.412;13.554;2023-07-22T04:42:51;100783.22;;;16.59;69.78
81509;BME280;70930;52.412;13.554;2023-07-22T04:45:37;100785.25;;;16.63;68.04
81509;BME280;70930;52.412;13.554;2023-07-22T04:48:26;100776.09;;;16.84;68.15
81509;BME280;70930;52.412;13.554;2023-07-22T04:51:11;100782.53;;;17.08;67.43
81509;BME280;70930;52.412;13.554;2023-07-22T04:53:57;100775.44;;;17.46;66.16
81509;BME280;70930;52.412;13.554;2023-07-22T04:56:42;100792.53;;;17.76;65.27
81509;BME280;70930;52.412;13.554;2023-07-22T04:59:28;100790.34;;;17.66;64.86
81509;BME280;70930;52.412;13.554;2023-07-22T05:02:13;100791.22;;;17.85;64.39
81509;BME280;70930;52.412;13.554;2023-07-22T05:04:59;100792.72;;;18.00;63.86
81509;BME280;70930;52.412;13.554;2023-07-22T05:07:44;100794.66;;;18.29;63.20
81509;BME280;70930;52.412;13.554;2023-07-22T05:10:30;100791.41;;;18.57;60.93
81509;BME280;70930;52.412;13.554;2023-07-22T05:13:16;100794.03;;;18.64;62.29
81509;BME280;70930;52.412;13.554;2023-07-22T05:16:02;100802.97;;;18.95;60.70
81509;BME280;70930;52.412;13.554;2023-07-22T05:18:47;100808.75;;;19.10;60.08
81509;BME280;70930;52.412;13.554;2023-07-22T05:21:33;100801.03;;;18.83;61.31
81509;BME280;70930;52.412;13.554;2023-07-22T05:24:18;100808.28;;;19.25;59.93
81509;BME280;70930;52.412;13.554;2023-07-22T05:27:06;100809.25;;;19.30;59.12
81509;BME280;70930;52.412;13.554;2023-07-22T05:29:51;100813.47;;;18.48;61.13
81509;BME280;70930;52.412;13.554;2023-07-22T05:32:37;100805.97;;;18.68;62.33
81509;BME280;70930;52.412;13.554;2023-07-22T05:35:22;100812.78;;;18.15;62.84
81509;BME280;70930;52.412;13.554;2023-07-22T05:38:08;100812.22;;;18.13;62.70
81509;BME280;70930;52.412;13.554;2023-07-22T05:40:54;100813.97;;;17.83;63.75
81509;BME280;70930;52.412;13.554;2023-07-22T05:43:39;100811.25;;;18.08;64.11
81509;BME280;70930;52.412;13.554;2023-07-22T05:46:25;100815.88;;;18.01;63.03
81509;BME280;70930;52.412;13.554;2023-07-22T05:49:10;100816.63;;;18.45;62.78
81509;BME280;70930;52.412;13.554;2023-07-22T05:51:56;100822.81;;;18.27;63.04
81509;BME280;70930;52.412;13.554;2023-07-22T05:54:41;100824.06;;;18.06;63.80
81509;BME280;70930;52.412;13.554;2023-07-22T05:57:27;100823.25;;;18.05;62.51
81509;BME280;70930;52.412;13.554;2023-07-22T06:00:13;100831.56;;;17.22;65.67
81509;BME280;70930;52.412;13.554;2023-07-22T06:02:58;100819.06;;;17.41;64.93
81509;BME280;70930;52.412;13.554;2023-07-22T06:05:44;100824.91;;;17.56;65.29
81509;BME280;70930;52.412;13.554;2023-07-22T06:08:29;100834.78;;;17.87;64.60
81509;BME280;70930;52.412;13.554;2023-07-22T06:11:14;100834.25;;;18.59;62.19
81509;BME280;70930;52.412;13.554;2023-07-22T06:14:00;100843.16;;;18.89;61.42
81509;BME280;70930;52.412;13.554;2023-07-22T06:16:45;100842.06;;;19.09;60.54
81509;BME280;70930;52.412;13.554;2023-07-22T06:19:30;100839.88;;;19.18;59.69
81509;BME280;70930;52.412;13.554;2023-07-22T06:22:16;100855.78;;;19.07;60.22
81509;BME280;70930;52.412;13.554;2023-07-22T06:25:01;100854.16;;;18.70;60.50
81509;BME280;70930;52.412;13.554;2023-07-22T06:27:46;100856.00;;;18.76;60.87
81509;BME280;70930;52.412;13.554;2023-07-22T06:30:32;100855.03;;;19.00;60.37
81509;BME280;70930;52.412;13.554;2023-07-22T06:33:19;100856.06;;;19.29;59.75
81509;BME280;70930;52.412;13.554;2023-07-22T06:36:05;100860.41;;;19.00;60.22
81509;BME280;70930;52.412;13.554;2023-07-22T06:38:50;100863.56;;;18.97;60.19
81509;BME280;70930;52.412;13.554;2023-07-22T06:41:36;100864.09;;;18.51;60.21
81509;BME280;70930;52.412;13.554;2023-07-22T06:44:21;100857.34;;;18.97;59.84
81509;BME280;70930;52.412;13.554;2023-07-22T06:47:06;100862.91;;;19.55;56.42
81509;BME280;70930;52.412;13.554;2023-07-22T06:49:52;100858.00;;;19.52;57.15
81509;BME280;70930;52.412;13.554;2023-07-22T06:52:37;100864.72;;;19.61;56.54
81509;BME280;70930;52.412;13.554;2023-07-22T06:55:23;100865.16;;;19.17;58.36
81509;BME280;70930;52.412;13.554;2023-07-22T06:58:08;100868.66;;;18.50;57.57
81509;BME280;70930;52.412;13.554;2023-07-22T07:00:54;100879.81;;;18.72;58.45
81509;BME280;70930;52.412;13.554;2023-07-22T07:03:40;100866.84;;;18.62;57.74
81509;BME280;70930;52.412;13.554;2023-07-22T07:06:28;100871.59;;;18.67;57.24
81509;BME280;70930;52.412;13.554;2023-07-22T07:09:14;100876.44;;;18.77;57.82
81509;BME280;70930;52.412;13.554;2023-07-22T07:12:00;100863.34;;;18.62;57.93
81509;BME280;70930;52.412;13.554;2023-07-22T07:14:45;100872.41;;;18.68;57.27
81509;BME280;70930;52.412;13.554;2023-07-22T07:17:31;100873.69;;;18.83;57.02
81509;BME280;70930;52.412;13.554;2023-07-22T07:20:16;100884.59;;;18.70;57.27
81509;BME280;70930;52.412;13.554;2023-07-22T07:23:01;100879.28;;;18.63;56.50
81509;BME280;70930;52.412;13.554;2023-07-22T07:25:47;100883.91;;;18.56;55.72
81509;BME280;70930;52.412;13.554;2023-07-22T07:28:32;100879.13;;;18.58;55.47
81509;BME280;70930;52.412;13.554;2023-07-22T07:31:18;100886.53;;;18.63;55.55
81509;BME280;70930;52.412;13.554;2023-07-22T07:34:03;100886.06;;;18.29;56.71
81509;BME280;70930;52.412;13.554;2023-07-22T07:36:49;100885.97;;;18.18;58.58
81509;BME280;70930;52.412;13.554;2023-07-22T07:39:34;100889.22;;;18.01;58.54
81509;BME280;70930;52.412;13.554;2023-07-22T07:42:19;100895.00;;;18.23;56.73
81509;BME280;70930;52.412;13.554;2023-07-22T07:45:05;100895.56;;;18.32;54.94
81509;BME280;70930;52.412;13.554;2023-07-22T07:47:51;100891.91;;;18.63;55.16
81509;BME280;70930;52.412;13.554;2023-07-22T07:50:36;100897.28;;;18.81;53.60
81509;BME280;70930;52.412;13.554;2023-07-22T07:53:22;100901.16;;;19.04;53.45
81509;BME280;70930;52.412;13.554;2023-07-22T07:56:08;100904.09;;;18.84;54.01
81509;BME280;70930;52.412;13.554;2023-07-22T07:58:54;100902.41;;;19.01;54.70
81509;BME280;70930;52.412;13.554;2023-07-22T08:01:40;100908.94;;;18.57;52.89
81509;BME280;70930;52.412;13.554;2023-07-22T08:04:26;100905.47;;;18.75;52.38
81509;BME280;70930;52.412;13.554;2023-07-22T08:07:15;100915.72;;;18.41;52.93
81509;BME280;70930;52.412;13.554;2023-07-22T08:10:00;100911.91;;;18.49;53.33
81509;BME280;70930;52.412;13.554;2023-07-22T08:12:48;100914.53;;;18.55;53.15
81509;BME280;70930;52.412;13.554;2023-07-22T08:15:34;100919.94;;;18.74;53.87
81509;BME280;70930;52.412;13.554;2023-07-22T08:18:19;100910.91;;;18.86;52.94
81509;BME280;70930;52.412;13.554;2023-07-22T08:21:06;100903.59;;;19.05;51.70
81509;BME280;70930;52.412;13.554;2023-07-22T08:23:52;100899.09;;;19.18;52.09
81509;BME280;70930;52.412;13.554;2023-07-22T08:26:38;100913.84;;;19.15;49.49
81509;BME280;70930;52.412;13.554;2023-07-22T08:29:24;100921.94;;;18.97;50.43
81509;BME280;70930;52.412;13.554;2023-07-22T08:32:09;100911.38;;;19.13;51.42
81509;BME280;70930;52.412;13.554;2023-07-22T08:34:55;100914.28;;;19.12;49.68
81509;BME280;70930;52.412;13.554;2023-07-22T08:37:40;100919.63;;;19.00;49.90
81509;BME280;70930;52.412;13.554;2023-07-22T08:40:25;100926.81;;;19.06;51.24
81509;BME280;70930;52.412;13.554;2023-07-22T08:43:11;100930.00;;;18.97;50.86
81509;BME280;70930;52.412;13.554;2023-07-22T08:46:00;100924.56;;;19.03;50.62
81509;BME280;70930;52.412;13.554;2023-07-22T08:48:53;100934.28;;;18.86;49.09
81509;BME280;70930;52.412;13.554;2023-07-22T08:51:39;100932.78;;;18.90;49.01
81509;BME280;70930;52.412;13.554;2023-07-22T08:54:24;100933.81;;;18.52;49.12
81509;BME280;70930;52.412;13.554;2023-07-22T08:57:11;100945.75;;;18.56;49.96
81509;BME280;70930;52.412;13.554;2023-07-22T08:59:57;100941.34;;;18.62;49.61
81509;BME280;70930;52.412;13.554;2023-07-22T09:02:43;100937.84;;;18.61;50.12
81509;BME280;70930;52.412;13.554;2023-07-22T09:05:32;100946.47;;;18.70;50.45
81509;BME280;70930;52.412;13.554;2023-07-22T09:08:18;100940.28;;;18.88;51.31
81509;BME280;70930;52.412;13.554;2023-07-22T09:11:03;100942.50;;;18.73;48.31
81509;BME280;70930;52.412;13.554;2023-07-22T09:13:50;100945.72;;;18.63;48.96
81509;BME280;70930;52.412;13.554;2023-07-22T09:16:37;100947.69;;;18.49;48.52
81509;BME280;70930;52.412;13.554;2023-07-22T09:19:23;100952.56;;;18.59;49.54
81509;BME280;70930;52.412;13.554;2023-07-22T09:22:08;100951.28;;;18.61;50.75
81509;BME280;70930;52.412;13.554;2023-07-22T09:25:12;100954.72;;;18.69;48.78
81509;BME280;70930;52.412;13.554;2023-07-22T09:27:59;100944.59;;;18.89;48.74
81509;BME280;70930;52.412;13.554;2023-07-22T09:30:47;100947.59;;;18.81;49.21
81509;BME280;70930;52.412;13.554;2023-07-22T09:33:35;100945.34;;;18.78;49.28
81509;BME280;70930;52.412;13.554;2023-07-22T09:36:20;100951.47;;;18.85;49.90
81509;BME280;70930;52.412;13.554;2023-07-22T09:39:06;100944.97;;;18.74;50.17
81509;BME280;70930;52.412;13.554;2023-07-22T09:41:52;100947.03;;;19.09;49.66
81509;BME280;70930;52.412;13.554;2023-07-22T09:44:38;100945.47;;;19.01;48.97
81509;BME280;70930;52.412;13.554;2023-07-22T09:47:23;100947.16;;;19.32;50.13
81509;BME280;70930;52.412;13.554;2023-07-22T09:50:17;100936.09;;;19.52;47.45
81509;BME280;70930;52.412;13.554;2023-07-22T09:53:04;100942.97;;;19.67;48.86
81509;BME280;70930;52.412;13.554;2023-07-22T09:55:52;100937.97;;;19.52;46.80
81509;BME280;70930;52.412;13.554;2023-07-22T09:58:38;100944.72;;;19.73;47.66
81509;BME280;70930;52.412;13.554;2023-07-22T10:01:25;100942.91;;;19.55;47.17
81509;BME280;70930;52.412;13.554;2023-07-22T10:04:12;100946.53;;;19.60;47.33
81509;BME280;70930;52.412;13.554;2023-07-22T10:06:58;100954.59;;;19.49;47.34
81509;BME280;70930;52.412;13.554;2023-07-22T10:09:44;100952.03;;;19.54;47.73
81509;BME280;70930;52.412;13.554;2023-07-22T10:12:31;100946.84;;;19.71;46.73
81509;BME280;70930;52.412;13.554;2023-07-22T10:15:17;100954.69;;;19.72;46.42
81509;BME280;70930;52.412;13.554;2023-07-22T10:18:03;100950.25;;;19.66;47.03
81509;BME280;70930;52.412;13.554;2023-07-22T10:20:53;100952.00;;;19.72;46.85
81509;BME280;70930;52.412;13.554;2023-07-22T10:23:38;100947.13;;;19.81;46.90
81509;BME280;70930;52.412;13.554;2023-07-22T10:26:24;100944.88;;;19.78;47.87
81509;BME280;70930;52.412;13.554;2023-07-22T10:29:10;100950.03;;;19.91;46.58
81509;BME280;70930;52.412;13.554;2023-07-22T10:31:56;100952.53;;;19.93;45.21
81509;BME280;70930;52.412;13.554;2023-07-22T10:34:42;100946.50;;;19.79;44.70
81509;BME280;70930;52.412;13.554;2023-07-22T10:37:31;100958.34;;;19.78;45.95
81509;BME280;70930;52.412;13.554;2023-07-22T10:43:09;100937.53;;;20.08;43.02
81509;BME280;70930;52.412;13.554;2023-07-22T10:45:57;100947.72;;;19.95;44.03
81509;BME280;70930;52.412;13.554;2023-07-22T10:48:43;100945.41;;;20.22;43.37
81509;BME280;70930;52.412;13.554;2023-07-22T10:51:35;100936.94;;;20.30;42.78
81509;BME280;70930;52.412;13.554;2023-07-22T10:54:34;100943.50;;;20.34;44.44
81509;BME280;70930;52.412;13.554;2023-07-22T11:00:18;100941.41;;;20.36;41.25
81509;BME280;70930;52.412;13.554;2023-07-22T11:03:12;100949.63;;;20.18;42.34
81509;BME280;70930;52.412;13.554;2023-07-22T11:05:57;100942.56;;;19.93;42.16
81509;BME280;70930;52.412;13.554;2023-07-22T11:08:43;100944.31;;;20.11;42.64
81509;BME280;70930;52.412;13.554;2023-07-22T11:11:40;100945.84;;;20.30;43.12
81509;BME280;70930;52.412;13.554;2023-07-22T11:14:27;100937.72;;;20.89;41.80
81509;BME280;70930;52.412;13.554;2023-07-22T11:17:13;100932.06;;;21.31;40.83
81509;BME280;70930;52.412;13.554;2023-07-22T11:19:59;100939.69;;;21.63;39.80
81509;BME280;70930;52.412;13.554;2023-07-22T11:22:45;100926.56;;;21.26;39.54
81509;BME280;70930;52.412;13.554;2023-07-22T11:25:33;100925.50;;;21.27;40.25
81509;BME280;70930;52.412;13.554;2023-07-22T11:28:19;100927.81;;;21.64;39.91
81509;BME280;70930;52.412;13.554;2023-07-22T11:31:04;100928.22;;;21.72;38.27
81509;BME280;70930;52.412;13.554;2023-07-22T11:33:50;100926.34;;;22.06;40.00
81509;BME280;70930;52.412;13.554;2023-07-22T11:36:37;100932.09;;;22.10;38.20
81509;BME280;70930;52.412;13.554;2023-07-22T11:39:26;100934.69;;;21.14;40.03
81509;BME280;70930;52.412;13.554;2023-07-22T11:42:20;100934.09;;;21.52;40.42
81509;BME280;70930;52.412;13.554;2023-07-22T11:45:06;100933.81;;;21.83;38.92
81509;BME280;70930;52.412;13.554;2023-07-22T11:47:52;100920.25;;;22.50;38.66
81509;BME280;70930;52.412;13.554;2023-07-22T11:50:37;100924.22;;;22.86;37.87
81509;BME280;70930;52.412;13.554;2023-07-22T11:53:26;100912.81;;;23.28;36.64
81509;BME280;70930;52.412;13.554;2023-07-22T11:56:17;100907.06;;;23.79;33.84
81509;BME280;70930;52.412;13.554;2023-07-22T11:59:02;100895.34;;;23.73;33.76
81509;BME280;70930;52.412;13.554;2023-07-22T12:01:49;100913.88;;;24.23;32.90
81509;BME280;70930;52.412;13.554;2023-07-22T12:04:34;100909.47;;;23.75;34.26
81509;BME280;70930;52.412;13.554;2023-07-22T12:07:28;100913.25;;;24.06;33.18
81509;BME280;70930;52.412;13.554;2023-07-22T12:10:15;100903.88;;;23.87;34.51
81509;BME280;70930;52.412;13.554;2023-07-22T12:13:01;100908.22;;;23.88;32.32
81509;BME280;70930;52.412;13.554;2023-07-22T12:16:01;100903.72;;;23.66;33.42
81509;BME280;70930;52.412;13.554;2023-07-22T12:18:47;100908.97;;;23.24;33.23
81509;BME280;70930;52.412;13.554;2023-07-22T12:21:33;100909.75;;;22.97;36.65
81509;BME280;70930;52.412;13.554;2023-07-22T12:24:19;100909.81;;;23.02;34.47
81509;BME280;70930;52.412;13.554;2023-07-22T12:27:04;100901.84;;;23.72;34.15
81509;BME280;70930;52.412;13.554;2023-07-22T12:29:50;100907.06;;;23.24;34.44
81509;BME280;70930;52.412;13.554;2023-07-22T12:32:35;100910.53;;;22.93;35.15
81509;BME280;70930;52.412;13.554;2023-07-22T12:35:21;100905.44;;;23.23;34.95
81509;BME280;70930;52.412;13.554;2023-07-22T12:38:06;100897.25;;;22.91;35.00
81509;BME280;70930;52.412;13.554;2023-07-22T12:40:51;100899.97;;;23.18;34.60
81509;BME280;70930;52.412;13.554;2023-07-22T12:43:37;100897.69;;;23.64;33.28
81509;BME280;70930;52.412;13.554;2023-07-22T12:46:22;100889.53;;;23.59;32.95
81509;BME280;70930;52.412;13.554;2023-07-22T12:49:08;100881.59;;;23.52;32.65
81509;BME280;70930;52.412;13.554;2023-07-22T12:51:53;100887.03;;;22.98;33.48
81509;BME280;70930;52.412;13.554;2023-07-22T12:54:38;100901.25;;;22.67;34.63
81509;BME280;70930;52.412;13.554;2023-07-22T12:57:24;100891.63;;;22.76;34.39
81509;BME280;70930;52.412;13.554;2023-07-22T13:00:10;100890.66;;;23.36;34.53
81509;BME280;70930;52.412;13.554;2023-07-22T13:02:56;100888.09;;;23.79;33.34
81509;BME280;70930;52.412;13.554;2023-07-22T13:05:42;100890.34;;;24.34;34.59
81509;BME280;70930;52.412;13.554;2023-07-22T13:08:27;100892.38;;;24.54;33.30
81509;BME280;70930;52.412;13.554;2023-07-22T13:11:18;100898.91;;;24.16;34.29
81509;BME280;70930;52.412;13.554;2023-07-22T13:14:05;100894.47;;;23.99;33.81
81509;BME280;70930;52.412;13.554;2023-07-22T13:16:50;100899.56;;;23.91;34.30
81509;BME280;70930;52.412;13.554;2023-07-22T13:19:35;100892.13;;;23.76;34.02
81509;BME280;70930;52.412;13.554;2023-07-22T13:22:21;100891.53;;;23.42;35.54
81509;BME280;70930;52.412;13.554;2023-07-22T13:25:06;100892.09;;;23.17;35.67
81509;BME280;70930;52.412;13.554;2023-07-22T13:27:54;100891.69;;;23.03;36.30
81509;BME280;70930;52.412;13.554;2023-07-22T13:30:40;100888.28;;;22.69;36.11
81509;BME280;70930;52.412;13.554;2023-07-22T13:33:25;100895.06;;;22.49;36.71
81509;BME280;70930;52.412;13.554;2023-07-22T13:36:11;100887.97;;;22.65;37.09
81509;BME280;70930;52.412;13.554;2023-07-22T13:38:56;100890.91;;;22.42;36.59
81509;BME280;70930;52.412;13.554;2023-07-22T13:41:42;100885.94;;;22.34;36.96
81509;BME280;70930;52.412;13.554;2023-07-22T13:44:27;100881.50;;;22.44;37.20
81509;BME280;70930;52.412;13.554;2023-07-22T13:47:13;100890.22;;;22.73;37.12
81509;BME280;70930;52.412;13.554;2023-07-22T13:49:58;100890.47;;;23.16;36.93
81509;BME280;70930;52.412;13.554;2023-07-22T13:52:43;100883.50;;;23.52;35.58
81509;BME280;70930;52.412;13.554;2023-07-22T13:55:29;100895.13;;;23.20;36.02
81509;BME280;70930;52.412;13.554;2023-07-22T13:58:14;100890.34;;;23.06;36.64
81509;BME280;70930;52.412;13.554;2023-07-22T14:01:00;100876.38;;;22.70;37.55
81509;BME280;70930;52.412;13.554;2023-07-22T14:03:45;100884.63;;;22.58;37.03
81509;BME280;70930;52.412;13.554;2023-07-22T14:06:30;100885.66;;;22.96;37.42
81509;BME280;70930;52.412;13.554;2023-07-22T14:09:17;100876.31;;;23.36;35.97
81509;BME280;70930;52.412;13.554;2023-07-22T14:12:03;100873.28;;;23.32;36.26
81509;BME280;70930;52.412;13.554;2023-07-22T14:14:48;100875.56;;;23.72;36.03
81509;BME280;70930;52.412;13.554;2023-07-22T14:17:34;100871.66;;;23.63;35.43
81509;BME280;70930;52.412;13.554;2023-07-22T14:20:19;100874.34;;;23.58;34.86
81509;BME280;70930;52.412;13.554;2023-07-22T14:23:05;100867.03;;;23.59;35.55
81509;BME280;70930;52.412;13.554;2023-07-22T14:25:50;100873.91;;;23.12;36.11